Time,TemperatureF,DewpointF,PressureIn,WindDirection,WindDirectionDegrees,WindSpeedMPH,WindSpeedGustMPH,Humidity,HourlyPrecipIn,Conditions,Clouds,dailyrainin,SoftwareType,DateUTC
2013-05-25 00:00:00,61.0,-99.9,-100.00,NE,41,6.0,10.0,-999,-99.99,,,-99.99,,2013-05-25 05:00:00,
2013-05-25 00:32:00,61.0,-99.9,-100.00,NE,41,6.0,10.0,-999,-99.99,,,-99.99,,2013-05-25 05:32:00,
2013-05-25 00:43:00,61.0,-99.9,-100.00,NE,41,6.0,10.0,-999,-99.99,,,-99.99,,2013-05-25 05:43:00,
2013-05-25 00:53:00,61.0,-99.9,-100.00,NE,41,6.0,10.0,-999,-99.99,,,-99.99,,2013-05-25 05:53:00,
2013-05-25 01:00:00,61.0,-99.9,-100.00,East,81,7.0,14.0,-999,-99.99,,,-99.99,,2013-05-25 06:00:00,
2013-05-25 01:33:00,61.0,-99.9,-100.00,East,81,7.0,14.0,-999,-99.99,,,-99.99,,2013-05-25 06:33:00,
2013-05-25 01:42:00,61.0,-99.9,-100.00,East,81,7.0,14.0,-999,-99.99,,,-99.99,,2013-05-25 06:42:00,
2013-05-25 01:52:00,61.0,-99.9,-100.00,East,81,7.0,14.0,-999,-99.99,,,-99.99,,2013-05-25 06:52:00,
2013-05-25 02:00:00,60.0,-99.9,-100.00,East,97,12.0,13.0,-999,-99.99,,,-99.99,,2013-05-25 07:00:00,
2013-05-25 02:52:00,60.0,-99.9,-100.00,East,97,12.0,13.0,-999,-99.99,,,-99.99,,2013-05-25 07:52:00,
2013-05-25 03:00:00,58.0,-99.9,-100.00,East,97,4.0,13.0,-999,-99.99,,,-99.99,,2013-05-25 08:00:00,
2013-05-25 03:32:00,58.0,-99.9,-100.00,East,97,4.0,13.0,-999,-99.99,,,-99.99,,2013-05-25 08:32:00,
2013-05-25 03:42:00,58.0,-99.9,-100.00,East,97,4.0,13.0,-999,-99.99,,,-99.99,,2013-05-25 08:42:00,
2013-05-25 03:52:00,58.0,-99.9,-100.00,East,97,4.0,13.0,-999,-99.99,,,-99.99,,2013-05-25 08:52:00,
2013-05-25 04:00:00,55.0,-99.9,-100.00,ENE,64,6.0,11.0,-999,-99.99,,,-99.99,,2013-05-25 09:00:00,
2013-05-25 04:33:00,55.0,-99.9,-100.00,ENE,64,6.0,11.0,-999,-99.99,,,-99.99,,2013-05-25 09:33:00,
2013-05-25 04:43:00,55.0,-99.9,-100.00,ENE,64,6.0,11.0,-999,-99.99,,,-99.99,,2013-05-25 09:43:00,
2013-05-25 04:53:00,55.0,-99.9,-100.00,ENE,64,6.0,11.0,-999,-99.99,,,-99.99,,2013-05-25 09:53:00,
2013-05-25 05:00:00,53.0,-99.9,-100.00,NE,54,8.0,16.0,-999,-99.99,,,-99.99,,2013-05-25 10:00:00,
2013-05-25 05:33:00,53.0,-99.9,-100.00,NE,54,8.0,16.0,-999,-99.99,,,-99.99,,2013-05-25 10:33:00,
2013-05-25 05:43:00,53.0,-99.9,-100.00,NE,54,8.0,16.0,-999,-99.99,,,-99.99,,2013-05-25 10:43:00,
2013-05-25 05:52:00,53.0,-99.9,-100.00,NE,54,8.0,16.0,-999,-99.99,,,-99.99,,2013-05-25 10:52:00,
2013-05-25 06:00:00,51.0,-99.9,-100.00,East,87,16.0,18.0,-999,-99.99,,,-99.99,,2013-05-25 11:00:00,
2013-05-25 06:32:00,51.0,-99.9,-100.00,East,87,16.0,18.0,-999,-99.99,,,-99.99,,2013-05-25 11:32:00,
2013-05-25 06:42:00,51.0,-99.9,-100.00,East,87,16.0,18.0,-999,-99.99,,,-99.99,,2013-05-25 11:42:00,
2013-05-25 06:53:00,51.0,-99.9,-100.00,East,87,16.0,18.0,-999,-99.99,,,-99.99,,2013-05-25 11:53:00,
2013-05-25 07:00:00,51.0,-99.9,-100.00,East,80,2.0,12.0,-999,-99.99,,,-99.99,,2013-05-25 12:00:00,
2013-05-25 07:32:00,51.0,-99.9,-100.00,East,80,2.0,12.0,-999,-99.99,,,-99.99,,2013-05-25 12:32:00,
2013-05-25 07:42:00,51.0,-99.9,-100.00,East,80,2.0,12.0,-999,-99.99,,,-99.99,,2013-05-25 12:42:00,
2013-05-25 07:52:00,51.0,-99.9,-100.00,East,80,2.0,12.0,-999,-99.99,,,-99.99,,2013-05-25 12:52:00,
2013-05-25 08:00:00,51.0,-99.9,-100.00,NE,45,12.0,17.0,-999,-99.99,,,-99.99,,2013-05-25 13:00:00,
2013-05-25 08:32:00,51.0,-99.9,-100.00,NE,45,12.0,17.0,-999,-99.99,,,-99.99,,2013-05-25 13:32:00,
2013-05-25 08:42:00,51.0,-99.9,-100.00,NE,45,12.0,17.0,-999,-99.99,,,-99.99,,2013-05-25 13:42:00,
2013-05-25 08:52:00,51.0,-99.9,-100.00,NE,45,12.0,17.0,-999,-99.99,,,-99.99,,2013-05-25 13:52:00,
2013-05-25 09:00:00,51.0,-99.9,-100.00,East,91,7.0,17.0,-999,-99.99,,,-99.99,,2013-05-25 14:00:00,
2013-05-25 09:32:00,51.0,-99.9,-100.00,East,91,7.0,17.0,-999,-99.99,,,-99.99,,2013-05-25 14:32:00,
2013-05-25 09:42:00,51.0,-99.9,-100.00,East,91,7.0,17.0,-999,-99.99,,,-99.99,,2013-05-25 14:42:00,
2013-05-25 09:52:00,51.0,-99.9,-100.00,East,91,7.0,17.0,-999,-99.99,,,-99.99,,2013-05-25 14:52:00,
2013-05-25 10:00:00,52.0,-99.9,-100.00,East,81,9.0,25.0,-999,-99.99,,,-99.99,,2013-05-25 15:00:00,
2013-05-25 10:33:00,52.0,-99.9,-100.00,East,81,9.0,25.0,-999,-99.99,,,-99.99,,2013-05-25 15:33:00,
2013-05-25 10:43:00,52.0,-99.9,-100.00,East,81,9.0,25.0,-999,-99.99,,,-99.99,,2013-05-25 15:43:00,
2013-05-25 10:53:00,52.0,-99.9,-100.00,East,81,9.0,25.0,-999,-99.99,,,-99.99,,2013-05-25 15:53:00,
2013-05-25 11:00:00,52.0,-99.9,-100.00,South,172,2.0,10.0,-999,-99.99,,,-99.99,,2013-05-25 16:00:00,
2013-05-25 11:33:00,52.0,-99.9,-100.00,South,172,2.0,10.0,-999,-99.99,,,-99.99,,2013-05-25 16:33:00,
2013-05-25 11:42:00,52.0,-99.9,-100.00,South,172,2.0,10.0,-999,-99.99,,,-99.99,,2013-05-25 16:42:00,
2013-05-25 11:52:00,52.0,-99.9,-100.00,South,172,2.0,10.0,-999,-99.99,,,-99.99,,2013-05-25 16:52:00,
2013-05-25 12:00:00,53.0,-99.9,-100.00,East,93,4.0,8.0,-999,-99.99,,,-99.99,,2013-05-25 17:00:00,
2013-05-25 12:33:00,53.0,-99.9,-100.00,East,93,4.0,8.0,-999,-99.99,,,-99.99,,2013-05-25 17:33:00,
2013-05-25 12:42:00,53.0,-99.9,-100.00,East,93,4.0,8.0,-999,-99.99,,,-99.99,,2013-05-25 17:42:00,
2013-05-25 12:52:00,53.0,-99.9,-100.00,East,93,4.0,8.0,-999,-99.99,,,-99.99,,2013-05-25 17:52:00,
2013-05-25 13:00:00,54.0,-99.9,-100.00,East,87,2.0,12.0,-999,-99.99,,,-99.99,,2013-05-25 18:00:00,
2013-05-25 13:52:00,54.0,-99.9,-100.00,East,87,2.0,12.0,-999,-99.99,,,-99.99,,2013-05-25 18:52:00,
2013-05-25 14:00:00,54.0,-99.9,-100.00,East,101,12.0,17.0,-999,-99.99,,,-99.99,,2013-05-25 19:00:00,
2013-05-25 14:32:00,54.0,-99.9,-100.00,East,101,12.0,17.0,-999,-99.99,,,-99.99,,2013-05-25 19:32:00,
2013-05-25 14:42:00,54.0,-99.9,-100.00,East,101,12.0,17.0,-999,-99.99,,,-99.99,,2013-05-25 19:42:00,
2013-05-25 14:52:00,54.0,-99.9,-100.00,East,101,12.0,17.0,-999,-99.99,,,-99.99,,2013-05-25 19:52:00,
2013-05-25 15:00:00,54.0,-99.9,-100.00,East,88,7.0,13.0,-999,-99.99,,,-99.99,,2013-05-25 20:00:00,
2013-05-25 15:52:00,54.0,-99.9,-100.00,East,88,7.0,13.0,-999,-99.99,,,-99.99,,2013-05-25 20:52:00,
2013-05-25 16:00:00,54.0,-99.9,-100.00,ENE,60,8.0,13.0,-999,-99.99,,,-99.99,,2013-05-25 21:00:00,
2013-05-25 16:33:00,54.0,-99.9,-100.00,ENE,60,8.0,13.0,-999,-99.99,,,-99.99,,2013-05-25 21:33:00,
2013-05-25 16:43:00,54.0,-99.9,-100.00,ENE,60,8.0,13.0,-999,-99.99,,,-99.99,,2013-05-25 21:43:00,
2013-05-25 16:53:00,54.0,-99.9,-100.00,ENE,60,8.0,13.0,-999,-99.99,,,-99.99,,2013-05-25 21:53:00,
2013-05-25 17:00:00,54.0,-99.9,-100.00,NE,35,5.0,12.0,-999,-99.99,,,-99.99,,2013-05-25 22:00:00,
2013-05-25 17:33:00,54.0,-99.9,-100.00,NE,35,5.0,12.0,-999,-99.99,,,-99.99,,2013-05-25 22:33:00,
2013-05-25 17:42:00,54.0,-99.9,-100.00,NE,35,5.0,12.0,-999,-99.99,,,-99.99,,2013-05-25 22:42:00,
2013-05-25 17:52:00,54.0,-99.9,-100.00,NE,35,5.0,12.0,-999,-99.99,,,-99.99,,2013-05-25 22:52:00,
2013-05-25 18:00:00,53.0,-99.9,-100.00,ENE,75,2.0,17.0,-999,-99.99,,,-99.99,,2013-05-25 23:00:00,
2013-05-25 18:32:00,53.0,-99.9,-100.00,ENE,75,2.0,17.0,-999,-99.99,,,-99.99,,2013-05-25 23:32:00,
2013-05-25 18:42:00,53.0,-99.9,-100.00,ENE,75,2.0,17.0,-999,-99.99,,,-99.99,,2013-05-25 23:42:00,
2013-05-25 18:53:00,53.0,-99.9,-100.00,ENE,75,2.0,17.0,-999,-99.99,,,-99.99,,2013-05-25 23:53:00,
2013-05-25 19:00:00,53.0,-99.9,-100.00,NE,55,6.0,12.0,-999,-99.99,,,-99.99,,2013-05-26 00:00:00,
2013-05-25 19:53:00,53.0,-99.9,-100.00,NE,55,6.0,12.0,-999,-99.99,,,-99.99,,2013-05-26 00:53:00,
2013-05-25 20:00:00,51.0,-99.9,-100.00,ENE,63,7.0,19.0,-999,-99.99,,,-99.99,,2013-05-26 01:00:00,
2013-05-25 20:32:00,51.0,-99.9,-100.00,ENE,63,7.0,19.0,-999,-99.99,,,-99.99,,2013-05-26 01:32:00,
2013-05-25 20:42:00,51.0,-99.9,-100.00,ENE,63,7.0,19.0,-999,-99.99,,,-99.99,,2013-05-26 01:42:00,
2013-05-25 20:53:00,51.0,-99.9,-100.00,ENE,63,7.0,19.0,-999,-99.99,,,-99.99,,2013-05-26 01:53:00,
2013-05-25 22:00:00,51.0,-99.9,-100.00,East,81,5.0,16.0,-999,-99.99,,,-99.99,,2013-05-26 03:00:00,
2013-05-25 22:33:00,51.0,-99.9,-100.00,East,81,5.0,16.0,-999,-99.99,,,-99.99,,2013-05-26 03:33:00,
2013-05-25 22:43:00,51.0,-99.9,-100.00,East,81,5.0,16.0,-999,-99.99,,,-99.99,,2013-05-26 03:43:00,
2013-05-25 22:53:00,51.0,-99.9,-100.00,East,81,5.0,16.0,-999,-99.99,,,-99.99,,2013-05-26 03:53:00,
2013-05-25 23:00:00,51.0,-99.9,-100.00,North,1,11.0,15.0,-999,-99.99,,,-99.99,,2013-05-26 04:00:00,
2013-05-25 23:33:00,51.0,-99.9,-100.00,North,1,11.0,15.0,-999,-99.99,,,-99.99,,2013-05-26 04:33:00,
2013-05-25 23:43:00,51.0,-99.9,-100.00,North,1,11.0,15.0,-999,-99.99,,,-99.99,,2013-05-26 04:43:00,
2013-05-25 23:53:00,51.0,-99.9,-100.00,North,1,11.0,15.0,-999,-99.99,,,-99.99,,2013-05-26 04:53:00,